メインページ
METAR-TAF:

METAR-TAF

空港 :

ロンドン・ヒースロー空港, イングランド

緯度: 51-29N, 経度: 000-27W, 海抜: 24m

現時点の気象観測

当レポートは32分前の20:20(UTC)に作成
西/北西の風 7kt
気温 1°C
湿度 75%
気圧 995 hPa
視程10km以上

METAR: EGLL 112020Z AUTO 30007KT 9999 NCD 01/M03 Q0995 NOSIG

時間: 20:52 (20:52 UTC)

予報

当レポートは3時間43分前の17:09(UTC)に作成
予報は11日の 18時(UTC)から 12日の 24時(UTC)まで有効
北/北西の風 12kt
視程10km以上
1,500メートル以下は雲なし、積乱雲なし
確率 30% :
11日の 18時(UTC)から 11日の 19時(UTC)まで一時的に
北/北西の風 15kt、最大25ktの突風を伴う
12日の 00時(UTC)から 12日の 03時(UTC)まで徐々に
西の風 4kt
確率 30% :
12日の 03時(UTC)から 12日の 09時(UTC)まで一時的に
視程: 6000m
確率 30%
12日の 16時(UTC)から 12日の 24時(UTC)まで
視程: 7000m

TAF: EGLL 111709Z 1118/1224 33012KT CAVOK PROB30 TEMPO 1118/1119 34015G25KT BECMG 1200/1203 27004KT PROB30 TEMPO 1203/1209 6000 PROB30 1216/1224 7000

4,000以上の空港の気象観測と天気予報(METAR報とTAF報)

利用可能な観測所は地図上に黄色い丸と赤い丸で示す。

丸の上にカーソルを重ねると観測所名を参照できる。

次にクリックすると気象観測と天気予報を参照できる。

マップの切り替え:黒色「×」印の緑ボタンをクリックして拡大、「-」印の緑ボタンをクリックして縮小、緑色の三角印をクリックして隣りの地図に切り替え


METAR-TAF: